createdAt,value
2023-02-11T00:02:25.667Z,98831.56
2023-02-11T00:04:52.375Z,98832.28
2023-02-11T00:07:19.011Z,98832.06
2023-02-11T00:09:45.643Z,98833.94
2023-02-11T00:12:12.299Z,98828.66
2023-02-11T00:14:38.976Z,98821.66
2023-02-11T00:17:05.638Z,98821.44
2023-02-11T00:19:32.314Z,98821.16
2023-02-11T00:21:58.963Z,98822.63
2023-02-11T00:24:25.641Z,98817.44
2023-02-11T00:26:52.302Z,98821.28
2023-02-11T00:29:19.002Z,98827.13
2023-02-11T00:31:45.760Z,98824.84
2023-02-11T00:34:12.485Z,98819.97
2023-02-11T00:36:39.176Z,98822.78
2023-02-11T00:39:05.809Z,98821.00
2023-02-11T00:41:32.459Z,98819.03
2023-02-11T00:43:59.238Z,98819.03
2023-02-11T00:46:25.952Z,98815.03
2023-02-11T00:48:52.687Z,98802.56
2023-02-11T00:51:19.348Z,98814.81
2023-02-11T00:53:46.041Z,98810.47
2023-02-11T00:56:12.767Z,98803.06
2023-02-11T00:58:39.428Z,98797.00
2023-02-11T01:01:06.107Z,98792.38
2023-02-11T01:03:32.800Z,98795.31
2023-02-11T01:05:59.490Z,98802.28
2023-02-11T01:08:26.237Z,98799.66
2023-02-11T01:11:00.119Z,98801.50
2023-02-11T01:13:27.057Z,98804.34
2023-02-11T01:15:53.975Z,98799.78
2023-02-11T01:18:20.763Z,98804.75
2023-02-11T01:20:47.430Z,98791.38
2023-02-11T01:23:14.095Z,98784.41
2023-02-11T01:25:40.749Z,98786.09
2023-02-11T01:28:07.465Z,98789.25
2023-02-11T01:30:34.161Z,98792.25
2023-02-11T01:33:00.816Z,98790.50
2023-02-11T01:35:27.479Z,98783.56
2023-02-11T01:37:54.123Z,98774.72
2023-02-11T01:40:20.825Z,98782.22
2023-02-11T01:42:49.996Z,98781.75
2023-02-11T01:45:45.313Z,98786.31
2023-02-11T01:48:16.007Z,98795.22
2023-02-11T01:50:42.665Z,98791.97
2023-02-11T01:53:09.327Z,98783.41
2023-02-11T01:55:35.995Z,98792.25
2023-02-11T01:58:02.873Z,98790.88
2023-02-11T02:00:38.071Z,98780.84
2023-02-11T02:03:13.230Z,98780.91
2023-02-11T02:05:51.108Z,98787.31
2023-02-11T02:08:27.114Z,98782.19
2023-02-11T02:10:53.748Z,98778.56
2023-02-11T02:13:20.494Z,98772.78
2023-02-11T02:16:04.517Z,98772.69
2023-02-11T02:18:37.160Z,98772.50
2023-02-11T02:21:38.637Z,98766.13
2023-02-11T02:24:38.543Z,98766.78
2023-02-11T02:27:32.391Z,98767.22
2023-02-11T02:30:27.090Z,98766.56
2023-02-11T02:33:21.951Z,98758.31
2023-02-11T02:36:13.108Z,98760.94
2023-02-11T02:38:51.092Z,98760.41
2023-02-11T02:41:19.358Z,98755.47
2023-02-11T02:43:48.352Z,98753.88
2023-02-11T02:46:21.234Z,98754.91
2023-02-11T02:48:48.055Z,98754.63
2023-02-11T02:51:39.845Z,98759.31
2023-02-11T02:54:31.293Z,98751.91
2023-02-11T02:57:36.818Z,98750.78
2023-02-11T03:00:12.570Z,98746.78
2023-02-11T03:03:05.393Z,98743.31
2023-02-11T03:05:48.979Z,98742.88
2023-02-11T03:08:34.354Z,98743.22
2023-02-11T03:11:01.307Z,98744.22
2023-02-11T03:13:30.022Z,98743.44
2023-02-11T03:15:57.414Z,98729.69
2023-02-11T03:18:26.221Z,98730.63
2023-02-11T03:20:53.167Z,98728.25
2023-02-11T03:23:34.959Z,98730.03
2023-02-11T03:26:25.279Z,98723.81
2023-02-11T03:28:56.064Z,98733.50
2023-02-11T03:31:37.095Z,98729.88
2023-02-11T03:34:31.484Z,98721.06
2023-02-11T03:37:02.101Z,98725.34
2023-02-11T03:39:44.697Z,98712.44
2023-02-11T03:42:11.368Z,98712.84
2023-02-11T03:44:41.952Z,98713.66
2023-02-11T03:47:09.324Z,98705.88
2023-02-11T03:49:36.124Z,98708.81
2023-02-11T03:52:02.797Z,98700.97
2023-02-11T03:54:30.282Z,98707.16
2023-02-11T03:56:58.557Z,98708.16
2023-02-11T03:59:25.438Z,98707.03
2023-02-11T04:01:52.102Z,98707.50
2023-02-11T04:04:18.782Z,98710.72
2023-02-11T04:06:45.574Z,98711.28
2023-02-11T04:09:12.347Z,98714.16
2023-02-11T04:11:39.038Z,98704.47
2023-02-11T04:14:05.680Z,98712.47
2023-02-11T04:16:32.386Z,98718.81
2023-02-11T04:18:59.152Z,98709.41
2023-02-11T04:21:25.796Z,98703.94
2023-02-11T04:23:52.486Z,98705.72
2023-02-11T04:26:19.145Z,98702.81
2023-02-11T04:28:45.778Z,98702.16
2023-02-11T04:31:12.512Z,98704.66
2023-02-11T04:33:39.203Z,98696.75
2023-02-11T04:36:06.181Z,98687.00
2023-02-11T04:38:32.816Z,98693.97
2023-02-11T04:40:59.581Z,98695.66
2023-02-11T04:43:26.302Z,98693.28
2023-02-11T04:45:53.679Z,98688.66
2023-02-11T04:48:20.501Z,98692.09
2023-02-11T04:50:47.161Z,98700.63
2023-02-11T04:53:13.811Z,98704.63
2023-02-11T04:55:40.513Z,98705.97
2023-02-11T04:58:07.179Z,98704.31
2023-02-11T05:00:34.596Z,98696.50
2023-02-11T05:03:01.372Z,98703.81
2023-02-11T05:05:28.018Z,98696.56
2023-02-11T05:07:54.672Z,98700.75
2023-02-11T05:10:21.339Z,98697.50
2023-02-11T05:12:48.779Z,98697.06
2023-02-11T05:15:15.747Z,98701.88
2023-02-11T05:17:42.416Z,98697.97
2023-02-11T05:20:09.690Z,98690.50
2023-02-11T05:22:36.390Z,98681.03
2023-02-11T05:25:03.067Z,98682.75
2023-02-11T05:27:29.719Z,98688.94
2023-02-11T05:29:56.355Z,98679.19
2023-02-11T05:32:23.051Z,98682.47
2023-02-11T05:34:49.698Z,98685.81
2023-02-11T05:37:16.819Z,98674.28
2023-02-11T05:39:43.469Z,98677.56
2023-02-11T05:42:10.172Z,98672.00
2023-02-11T05:44:36.805Z,98666.16
2023-02-11T05:47:03.555Z,98655.84
2023-02-11T05:49:30.431Z,98663.84
2023-02-11T05:51:57.467Z,98666.66
2023-02-11T05:54:25.289Z,98673.59
2023-02-11T05:56:51.948Z,98674.63
2023-02-11T05:59:18.615Z,98673.78
2023-02-11T06:01:45.251Z,98667.81
2023-02-11T06:04:11.905Z,98673.56
2023-02-11T06:06:38.644Z,98676.63
2023-02-11T06:09:05.318Z,98676.03
2023-02-11T06:11:32.009Z,98673.63
2023-02-11T06:13:58.660Z,98664.88
2023-02-11T06:16:25.766Z,98668.44
2023-02-11T06:18:53.304Z,98678.09
2023-02-11T06:21:21.936Z,98683.44
2023-02-11T06:23:49.653Z,98690.28
2023-02-11T06:26:22.283Z,98681.38
2023-02-11T06:28:49.893Z,98677.97
2023-02-11T06:31:17.622Z,98688.50
2023-02-11T06:33:46.280Z,98685.06
2023-02-11T06:36:16.011Z,98683.16
2023-02-11T06:38:43.650Z,98692.81
2023-02-11T06:41:14.014Z,98688.50
2023-02-11T06:43:42.915Z,98690.59
2023-02-11T06:46:09.666Z,98695.16
2023-02-11T06:48:38.122Z,98698.72
2023-02-11T06:51:06.725Z,98691.22
2023-02-11T06:53:38.411Z,98691.22
2023-02-11T06:56:06.002Z,98699.97
2023-02-11T06:58:32.708Z,98698.31
2023-02-11T07:01:00.194Z,98702.81
2023-02-11T07:03:28.803Z,98700.69
2023-02-11T07:05:56.393Z,98694.09
2023-02-11T07:08:24.000Z,98696.94
2023-02-11T07:10:51.581Z,98699.50
2023-02-11T07:13:18.292Z,98708.69
2023-02-11T07:15:45.872Z,98711.25
2023-02-11T07:18:14.720Z,98721.53
2023-02-11T07:20:41.956Z,98731.31
2023-02-11T07:23:09.558Z,98738.25
2023-02-11T07:25:37.154Z,98741.66
2023-02-11T07:28:03.920Z,98741.38
2023-02-11T07:30:30.597Z,98742.38
2023-02-11T07:32:57.255Z,98746.63
2023-02-11T07:35:23.884Z,98752.75
2023-02-11T07:37:50.501Z,98756.13
2023-02-11T07:40:17.139Z,98759.53
2023-02-11T07:42:43.774Z,98752.16
2023-02-11T07:45:10.436Z,98760.63
2023-02-11T07:47:37.081Z,98760.28
2023-02-11T07:50:03.719Z,98766.00
2023-02-11T07:52:33.264Z,98759.31
2023-02-11T07:54:59.916Z,98758.63
2023-02-11T07:57:26.765Z,98749.91
2023-02-11T07:59:53.488Z,98747.09
2023-02-11T08:02:20.157Z,98752.25
2023-02-11T08:04:47.046Z,98747.09
2023-02-11T08:07:17.273Z,98752.41
2023-02-11T08:09:43.956Z,98748.16
2023-02-11T08:12:10.594Z,98747.94
2023-02-11T08:14:37.302Z,98744.66
2023-02-11T08:17:03.954Z,98743.47
2023-02-11T08:19:30.690Z,98750.66
2023-02-11T08:21:57.937Z,98748.38
2023-02-11T08:24:24.581Z,98743.25
2023-02-11T08:26:51.233Z,98756.22
2023-02-11T08:29:17.872Z,98755.88
2023-02-11T08:31:45.901Z,98752.13
2023-02-11T08:34:12.903Z,98758.69
2023-02-11T08:36:39.753Z,98759.63
2023-02-11T08:39:18.592Z,98766.38
2023-02-11T08:41:47.349Z,98759.63
2023-02-11T08:44:14.041Z,98766.28
2023-02-11T08:46:40.676Z,98765.94
2023-02-11T08:49:07.420Z,98774.34
2023-02-11T08:51:34.043Z,98778.72
2023-02-11T08:54:00.675Z,98781.06
2023-02-11T08:56:27.374Z,98785.63
2023-02-11T08:58:54.491Z,98791.25
2023-02-11T09:01:26.270Z,98777.06
2023-02-11T09:03:53.015Z,98774.75
2023-02-11T09:06:19.713Z,98790.75
2023-02-11T09:08:47.901Z,98783.91
2023-02-11T09:11:14.543Z,98777.84
2023-02-11T09:13:41.936Z,98779.13
2023-02-11T09:16:09.552Z,98781.38
2023-02-11T09:18:36.471Z,98784.47
2023-02-11T09:21:04.185Z,98778.03
2023-02-11T09:23:30.850Z,98778.53
2023-02-11T09:25:57.562Z,98771.31
2023-02-11T09:28:24.248Z,98780.44
2023-02-11T09:30:51.325Z,98769.88
2023-02-11T09:33:18.161Z,98779.56
2023-02-11T09:35:44.813Z,98782.84
2023-02-11T09:38:11.440Z,98785.78
2023-02-11T09:40:42.727Z,98785.53
2023-02-11T09:43:19.420Z,98777.22
2023-02-11T09:45:46.101Z,98786.03
2023-02-11T09:48:17.731Z,98787.72
2023-02-11T09:50:50.302Z,98791.03
2023-02-11T09:53:27.541Z,98804.72
2023-02-11T09:55:55.847Z,98802.38
2023-02-11T09:58:27.873Z,98808.44
2023-02-11T10:01:08.808Z,98811.59
2023-02-11T10:03:35.375Z,98822.25
2023-02-11T10:06:13.816Z,98817.13
2023-02-11T10:09:02.136Z,98816.28
2023-02-11T10:11:53.530Z,98823.06
2023-02-11T10:14:29.871Z,98828.75
2023-02-11T10:17:18.977Z,98825.16
2023-02-11T10:19:54.613Z,98825.91
2023-02-11T10:22:36.795Z,98829.13
2023-02-11T10:25:16.473Z,98825.00
2023-02-11T10:27:43.107Z,98821.13
2023-02-11T10:30:18.668Z,98808.94
2023-02-11T10:32:48.650Z,98814.75
2023-02-11T10:35:20.254Z,98808.09
2023-02-11T10:37:47.112Z,98806.75
2023-02-11T10:40:17.900Z,98811.00
2023-02-11T10:42:47.104Z,98806.41
2023-02-11T10:45:31.836Z,98808.09
2023-02-11T10:48:00.862Z,98801.19
2023-02-11T10:50:31.484Z,98793.28
2023-02-11T10:53:17.280Z,98789.00
2023-02-11T10:55:57.789Z,98784.97
2023-02-11T10:58:45.223Z,98774.69
2023-02-11T11:01:23.846Z,98783.16
2023-02-11T11:03:52.084Z,98777.09
2023-02-11T11:06:31.478Z,98771.75
2023-02-11T11:08:58.192Z,98764.34
2023-02-11T11:11:25.357Z,98759.94
2023-02-11T11:13:57.477Z,98757.16
2023-02-11T11:16:32.767Z,98768.25
2023-02-11T11:19:08.300Z,98755.50
2023-02-11T11:21:45.051Z,98755.72
2023-02-11T11:24:34.976Z,98749.31
2023-02-11T11:27:02.655Z,98747.59
2023-02-11T11:29:29.136Z,98749.69
2023-02-11T11:32:03.439Z,98744.59
2023-02-11T11:34:32.172Z,98747.13
2023-02-11T11:36:59.617Z,98738.69
2023-02-11T11:39:32.797Z,98744.31
2023-02-11T11:42:24.127Z,98735.94
2023-02-11T11:45:04.133Z,98724.94
2023-02-11T11:47:53.533Z,98739.31
2023-02-11T11:50:26.137Z,98731.66
2023-02-11T11:53:00.264Z,98726.94
2023-02-11T11:55:45.274Z,98713.97
2023-02-11T11:58:21.969Z,98722.53
2023-02-11T12:00:53.803Z,98717.84
2023-02-11T12:03:44.545Z,98717.72
2023-02-11T12:06:21.114Z,98715.34
2023-02-11T12:09:02.381Z,98704.13
2023-02-11T12:12:07.911Z,98710.53
2023-02-11T12:15:04.305Z,98707.47
2023-02-11T12:17:38.239Z,98698.34
2023-02-11T12:20:16.945Z,98704.41
2023-02-11T12:22:56.774Z,98696.53
2023-02-11T12:25:46.761Z,98697.34
2023-02-11T12:28:20.542Z,98692.00
2023-02-11T12:31:21.790Z,98696.28
2023-02-11T12:33:57.393Z,98692.97
2023-02-11T12:36:23.890Z,98688.94
2023-02-11T12:38:50.370Z,98695.09
2023-02-11T12:41:32.685Z,98692.81
2023-02-11T12:43:59.500Z,98673.56
2023-02-11T12:46:43.242Z,98673.50
2023-02-11T12:49:34.017Z,98676.09
2023-02-11T12:52:08.355Z,98676.72
2023-02-11T12:54:36.900Z,98666.31
2023-02-11T12:57:03.946Z,98669.59
2023-02-11T13:00:07.735Z,98662.13
2023-02-11T13:02:36.610Z,98653.66
2023-02-11T13:05:31.782Z,98655.34
2023-02-11T13:08:12.645Z,98651.84
2023-02-11T13:10:41.138Z,98655.72
2023-02-11T13:13:37.258Z,98659.38
2023-02-11T13:16:06.559Z,98649.94
2023-02-11T13:18:54.040Z,98644.97
2023-02-11T13:21:34.838Z,98635.84
2023-02-11T13:24:07.973Z,98634.53
2023-02-11T13:27:02.128Z,98628.94
2023-02-11T13:29:50.507Z,98623.75
2023-02-11T13:32:17.156Z,98626.41
2023-02-11T13:34:43.674Z,98626.28
2023-02-11T13:37:36.164Z,98623.31
2023-02-11T13:40:10.167Z,98616.09
2023-02-11T13:42:50.989Z,98614.06
2023-02-11T13:45:18.698Z,98617.34
2023-02-11T13:47:45.332Z,98610.59
2023-02-11T13:50:21.863Z,98607.94
2023-02-11T13:52:48.503Z,98597.53
2023-02-11T13:55:21.280Z,98598.53
2023-02-11T13:58:05.926Z,98601.66
2023-02-11T14:00:35.391Z,98599.84
2023-02-11T14:03:11.003Z,98598.53
2023-02-11T14:05:37.666Z,98593.53
2023-02-11T14:08:09.908Z,98589.06
2023-02-11T14:10:42.455Z,98589.34
2023-02-11T14:13:25.112Z,98595.13
2023-02-11T14:16:06.911Z,98587.16
2023-02-11T14:18:37.446Z,98571.78
2023-02-11T14:21:11.491Z,98574.94
2023-02-11T14:23:38.146Z,98576.91
2023-02-11T14:26:20.132Z,98577.16
2023-02-11T14:28:54.479Z,98577.66
2023-02-11T14:31:26.453Z,98576.44
2023-02-11T14:34:21.383Z,98573.38
2023-02-11T14:36:54.894Z,98569.88
2023-02-11T14:40:00.877Z,98576.28
2023-02-11T14:42:28.045Z,98578.63
2023-02-11T14:45:02.847Z,98574.97
2023-02-11T14:47:34.482Z,98577.03
2023-02-11T14:50:01.123Z,98578.72
2023-02-11T14:52:29.469Z,98565.88
2023-02-11T14:55:17.788Z,98565.50
2023-02-11T14:57:44.666Z,98567.06
2023-02-11T15:00:16.560Z,98566.72
2023-02-11T15:02:43.443Z,98568.56
2023-02-11T15:05:21.913Z,98563.44
2023-02-11T15:07:50.459Z,98563.56
2023-02-11T15:10:19.074Z,98558.84
2023-02-11T15:12:45.837Z,98569.53
2023-02-11T15:15:12.488Z,98560.06
2023-02-11T15:17:39.140Z,98555.44
2023-02-11T15:20:06.597Z,98551.31
2023-02-11T15:22:33.757Z,98553.16
2023-02-11T15:25:08.743Z,98554.59
2023-02-11T15:27:44.379Z,98546.59
2023-02-11T15:30:23.929Z,98555.22
2023-02-11T15:32:51.236Z,98546.59
2023-02-11T15:35:18.158Z,98554.81
2023-02-11T15:37:44.878Z,98549.50
2023-02-11T15:40:12.362Z,98552.41
2023-02-11T15:42:52.132Z,98563.66
2023-02-11T15:45:19.588Z,98558.63
2023-02-11T15:47:51.113Z,98552.59
2023-02-11T15:50:31.641Z,98548.06
2023-02-11T15:53:00.498Z,98544.09
2023-02-11T15:55:27.148Z,98548.53
2023-02-11T15:57:55.341Z,98551.75
2023-02-11T16:00:23.833Z,98556.94
2023-02-11T16:02:50.479Z,98555.34
2023-02-11T16:05:31.817Z,98556.66
2023-02-11T16:07:58.738Z,98557.28
2023-02-11T16:10:29.355Z,98557.22
2023-02-11T16:13:05.769Z,98553.84
2023-02-11T16:15:35.282Z,98558.56
2023-02-11T16:18:02.471Z,98563.47
2023-02-11T16:20:29.130Z,98550.16
2023-02-11T16:22:55.776Z,98557.22
2023-02-11T16:25:23.228Z,98558.91
2023-02-11T16:27:51.723Z,98560.19
2023-02-11T16:30:23.820Z,98558.72
2023-02-11T16:32:50.475Z,98565.66
2023-02-11T16:35:17.177Z,98554.84
2023-02-11T16:37:43.818Z,98561.22
2023-02-11T16:40:11.849Z,98568.03
2023-02-11T16:42:38.496Z,98570.81
2023-02-11T16:45:06.700Z,98576.78
2023-02-11T16:47:35.434Z,98571.38
2023-02-11T16:50:02.268Z,98569.13
2023-02-11T16:52:28.953Z,98571.56
2023-02-11T16:54:55.607Z,98571.25
2023-02-11T16:57:23.611Z,98579.75
2023-02-11T16:59:50.335Z,98580.94
2023-02-11T17:02:22.860Z,98586.25
2023-02-11T17:04:50.567Z,98586.03
2023-02-11T17:07:17.323Z,98583.16
2023-02-11T17:09:44.704Z,98582.06
2023-02-11T17:12:11.361Z,98584.94
2023-02-11T17:14:38.022Z,98578.00
2023-02-11T17:17:04.669Z,98572.91
2023-02-11T17:19:31.336Z,98580.53
2023-02-11T17:21:58.035Z,98583.72
2023-02-11T17:24:24.669Z,98596.53
2023-02-11T17:26:51.311Z,98590.66
2023-02-11T17:29:22.516Z,98595.34
2023-02-11T17:31:49.474Z,98598.31
2023-02-11T17:34:16.554Z,98588.41
2023-02-11T17:36:43.214Z,98595.69
2023-02-11T17:39:09.861Z,98600.44
2023-02-11T17:41:37.151Z,98604.34
2023-02-11T17:44:04.038Z,98604.06
2023-02-11T17:46:30.724Z,98604.38
2023-02-11T17:48:58.240Z,98604.66
2023-02-11T17:51:27.774Z,98602.28
2023-02-11T17:53:54.444Z,98600.78
2023-02-11T17:56:21.084Z,98606.94
2023-02-11T17:58:47.781Z,98607.94
2023-02-11T18:01:14.496Z,98612.59
2023-02-11T18:03:41.199Z,98611.66
2023-02-11T18:06:07.940Z,98614.50
2023-02-11T18:08:34.893Z,98620.19
2023-02-11T18:11:01.561Z,98624.63
2023-02-11T18:13:28.289Z,98622.72
2023-02-11T18:15:55.099Z,98622.81
2023-02-11T18:18:21.761Z,98622.81
2023-02-11T18:20:58.636Z,98627.38
2023-02-11T18:23:25.477Z,98626.53
2023-02-11T18:25:52.510Z,98627.69
2023-02-11T18:28:19.374Z,98630.13
2023-02-11T18:30:46.062Z,98630.22
2023-02-11T18:33:12.749Z,98637.97
2023-02-11T18:35:39.649Z,98630.22
2023-02-11T18:38:06.322Z,98622.34
2023-02-11T18:40:34.030Z,98639.22
2023-02-11T18:43:00.654Z,98635.81
2023-02-11T18:45:27.344Z,98632.22
2023-02-11T18:47:54.107Z,98642.13
2023-02-11T18:50:20.754Z,98638.66
2023-02-11T18:52:47.790Z,98635.34
2023-02-11T18:55:14.606Z,98645.34
2023-02-11T18:57:41.260Z,98643.84
2023-02-11T19:00:08.528Z,98650.00
2023-02-11T19:02:35.407Z,98645.84
2023-02-11T19:05:02.486Z,98650.94
2023-02-11T19:07:29.410Z,98652.66
2023-02-11T19:09:56.110Z,98656.69
2023-02-11T19:12:22.780Z,98656.59
2023-02-11T19:14:49.453Z,98664.44
2023-02-11T19:17:16.101Z,98656.69
2023-02-11T19:19:42.751Z,98660.19
2023-02-11T19:22:10.804Z,98663.50
2023-02-11T19:24:37.620Z,98659.53
2023-02-11T19:27:04.360Z,98663.13
2023-02-11T19:29:30.995Z,98660.75
2023-02-11T19:31:57.715Z,98664.44
2023-02-11T19:34:24.477Z,98660.00
2023-02-11T19:36:51.145Z,98666.25
2023-02-11T19:39:17.786Z,98666.66
2023-02-11T19:41:44.499Z,98671.75
2023-02-11T19:44:11.164Z,98660.78
2023-02-11T19:46:38.479Z,98661.50
2023-02-11T19:49:05.316Z,98658.69
2023-02-11T19:51:31.965Z,98663.50
2023-02-11T19:53:58.651Z,98663.59
2023-02-11T19:56:25.523Z,98658.94
2023-02-11T19:58:52.217Z,98660.75
2023-02-11T20:01:19.913Z,98652.69
2023-02-11T20:03:50.048Z,98648.34
2023-02-11T20:06:20.459Z,98652.16
2023-02-11T20:08:47.127Z,98648.06
2023-02-11T20:11:16.524Z,98643.91
2023-02-11T20:13:43.219Z,98654.94
2023-02-11T20:16:12.027Z,98647.72
2023-02-11T20:18:39.310Z,98651.66
2023-02-11T20:21:07.594Z,98669.53
2023-02-11T20:23:34.578Z,98661.50
2023-02-11T20:26:12.805Z,98652.53
2023-02-11T20:28:39.485Z,98664.75
2023-02-11T20:31:06.398Z,98664.66
2023-02-11T20:33:33.226Z,98662.09
2023-02-11T20:36:01.723Z,98656.22
2023-02-11T20:38:28.379Z,98662.63
2023-02-11T20:40:55.103Z,98664.16
2023-02-11T20:43:21.924Z,98661.88
2023-02-11T20:45:48.622Z,98669.88
2023-02-11T20:48:15.276Z,98657.03
2023-02-11T20:50:41.948Z,98651.22
2023-02-11T20:53:08.589Z,98658.22
2023-02-11T20:55:37.466Z,98651.22
2023-02-11T20:58:05.405Z,98651.06
2023-02-11T21:00:32.060Z,98647.72
2023-02-11T21:02:58.779Z,98651.59
2023-02-11T21:05:25.457Z,98648.75
2023-02-11T21:07:53.127Z,98650.47
2023-02-11T21:10:19.850Z,98642.09
2023-02-11T21:12:49.533Z,98643.91
2023-02-11T21:15:16.533Z,98652.69
2023-02-11T21:17:43.237Z,98650.13
2023-02-11T21:20:10.244Z,98643.16
2023-02-11T21:22:36.942Z,98648.72
2023-02-11T21:25:03.716Z,98654.84
2023-02-11T21:27:30.395Z,98641.78
2023-02-11T21:29:57.067Z,98641.34
2023-02-11T21:32:23.835Z,98643.81
2023-02-11T21:34:50.558Z,98648.25
2023-02-11T21:37:17.207Z,98641.88
2023-02-11T21:39:43.862Z,98643.72
2023-02-11T21:42:10.643Z,98638.53
2023-02-11T21:44:37.324Z,98648.63
2023-02-11T21:47:04.019Z,98637.94
2023-02-11T21:49:30.717Z,98635.41
2023-02-11T21:51:57.420Z,98638.56
2023-02-11T21:54:24.165Z,98641.28
2023-02-11T21:56:50.846Z,98632.09
2023-02-11T21:59:17.501Z,98644.63
2023-02-11T22:01:44.991Z,98638.13
2023-02-11T22:04:11.859Z,98641.28
2023-02-11T22:06:38.575Z,98641.22
2023-02-11T22:09:06.525Z,98639.41
2023-02-11T22:11:33.248Z,98645.41
2023-02-11T22:13:59.931Z,98652.31
2023-02-11T22:16:27.073Z,98655.53
2023-02-11T22:18:53.821Z,98650.78
2023-02-11T22:21:21.849Z,98654.44
2023-02-11T22:23:48.672Z,98658.38
2023-02-11T22:26:17.041Z,98656.31
2023-02-11T22:28:43.780Z,98663.63
2023-02-11T22:31:15.138Z,98667.56
2023-02-11T22:33:41.866Z,98665.00
2023-02-11T22:36:12.583Z,98658.88
2023-02-11T22:38:39.242Z,98669.00
2023-02-11T22:41:07.087Z,98661.97
2023-02-11T22:43:33.754Z,98666.13
2023-02-11T22:46:01.332Z,98675.50
2023-02-11T22:48:28.023Z,98670.47
2023-02-11T22:50:54.689Z,98666.66
2023-02-11T22:53:21.338Z,98661.78
2023-02-11T22:55:48.088Z,98668.59
2023-02-11T22:58:14.720Z,98668.94
2023-02-11T23:00:41.386Z,98675.84
2023-02-11T23:03:08.175Z,98665.09
2023-02-11T23:05:41.252Z,98674.56
2023-02-11T23:08:08.718Z,98673.19
2023-02-11T23:10:36.200Z,98663.66
2023-02-11T23:13:03.560Z,98662.19
2023-02-11T23:15:30.258Z,98660.59
2023-02-11T23:17:56.932Z,98658.97
2023-02-11T23:20:23.613Z,98663.91
2023-02-11T23:22:50.251Z,98658.78
2023-02-11T23:25:16.905Z,98654.94
2023-02-11T23:27:43.576Z,98654.28
2023-02-11T23:30:10.621Z,98650.25
2023-02-11T23:32:40.022Z,98657.41
2023-02-11T23:35:06.698Z,98649.72
2023-02-11T23:37:33.375Z,98641.66
2023-02-11T23:40:00.004Z,98645.41
2023-02-11T23:42:26.643Z,98640.63
2023-02-11T23:44:53.307Z,98641.47
2023-02-11T23:47:19.948Z,98635.44
2023-02-11T23:49:46.602Z,98635.44
2023-02-11T23:52:13.249Z,98641.66
2023-02-11T23:54:40.023Z,98638.66
2023-02-11T23:57:06.696Z,98638.75
2023-02-11T23:59:33.365Z,98635.66
